createdAt,value
2023-01-12T00:01:47.237Z,7.10
2023-01-12T00:04:14.978Z,5.18
2023-01-12T00:06:41.960Z,13.07
2023-01-12T00:09:09.741Z,9.60
2023-01-12T00:11:37.711Z,13.30
2023-01-12T00:14:06.148Z,13.07
2023-01-12T00:16:35.503Z,10.27
2023-01-12T00:19:11.192Z,8.77
2023-01-12T00:21:50.451Z,7.93
2023-01-12T00:24:18.566Z,15.13
2023-01-12T00:26:46.695Z,6.15
2023-01-12T00:29:13.546Z,7.70
2023-01-12T00:31:40.287Z,7.93
2023-01-12T00:34:06.885Z,8.02
2023-01-12T00:36:33.526Z,9.13
2023-01-12T00:39:00.157Z,6.05
2023-01-12T00:41:46.118Z,10.48
2023-01-12T00:44:32.230Z,9.25
2023-01-12T00:46:58.867Z,10.05
2023-01-12T00:49:25.603Z,16.00
2023-01-12T00:51:52.124Z,11.20
2023-01-12T00:54:18.810Z,11.13
2023-01-12T00:56:45.420Z,13.13
2023-01-12T00:59:11.889Z,12.23
2023-01-12T01:01:38.548Z,15.05
2023-01-12T01:04:05.487Z,11.45
2023-01-12T01:06:31.983Z,10.40
2023-01-12T01:08:58.772Z,16.63
2023-01-12T01:11:25.366Z,13.13
2023-01-12T01:13:54.380Z,11.80
2023-01-12T01:16:21.054Z,12.82
2023-01-12T01:18:51.000Z,11.45
2023-01-12T01:21:18.844Z,12.23
2023-01-12T01:23:45.745Z,13.95
2023-01-12T01:26:15.701Z,12.98
2023-01-12T01:28:45.417Z,13.38
2023-01-12T01:31:18.772Z,12.35
2023-01-12T01:33:46.164Z,16.83
2023-01-12T01:36:13.345Z,17.83
2023-01-12T01:38:40.242Z,7.35
2023-01-12T01:41:07.562Z,11.30
2023-01-12T01:43:56.375Z,14.52
2023-01-12T01:46:33.737Z,6.22
2023-01-12T01:49:11.389Z,9.48
2023-01-12T01:51:38.194Z,7.82
2023-01-12T01:54:05.898Z,13.88
2023-01-12T01:56:33.616Z,14.80
2023-01-12T01:59:15.607Z,8.82
2023-01-12T02:01:42.434Z,9.40
2023-01-12T02:04:12.255Z,9.30
2023-01-12T02:06:39.074Z,12.48
2023-01-12T02:09:14.744Z,11.48
2023-01-12T02:12:04.700Z,7.40
2023-01-12T02:14:52.088Z,9.10
2023-01-12T02:17:37.622Z,5.93
2023-01-12T02:20:06.896Z,7.85
2023-01-12T02:23:01.244Z,10.48
2023-01-12T02:26:14.951Z,7.18
2023-01-12T02:28:50.473Z,7.82
2023-01-12T02:31:30.488Z,3.10
2023-01-12T02:34:07.207Z,7.88
2023-01-12T02:39:26.274Z,6.38
2023-01-12T02:42:22.205Z,7.97
2023-01-12T02:45:19.594Z,4.95
2023-01-12T02:47:56.652Z,4.93
2023-01-12T02:50:49.787Z,3.30
2023-01-12T02:53:38.563Z,2.53
2023-01-12T02:56:07.639Z,6.72
2023-01-12T02:58:37.093Z,5.32
2023-01-12T03:01:06.616Z,4.18
2023-01-12T03:03:35.147Z,3.75
2023-01-12T03:06:01.887Z,3.53
2023-01-12T03:08:31.226Z,5.22
2023-01-12T03:10:57.705Z,3.33
2023-01-12T03:13:27.131Z,3.90
2023-01-12T03:15:57.002Z,8.18
2023-01-12T03:18:48.318Z,10.98
2023-01-12T03:21:27.118Z,7.72
2023-01-12T03:24:04.877Z,5.88
2023-01-12T03:26:35.810Z,5.32
2023-01-12T03:29:09.395Z,9.68
2023-01-12T03:31:36.591Z,6.10
2023-01-12T03:34:08.172Z,7.80
2023-01-12T03:36:53.472Z,7.03
2023-01-12T03:39:31.870Z,12.32
2023-01-12T03:42:06.680Z,5.00
2023-01-12T03:45:09.210Z,4.25
2023-01-12T03:47:36.965Z,7.53
2023-01-12T03:50:03.490Z,7.03
2023-01-12T03:52:31.228Z,3.47
2023-01-12T03:55:00.470Z,2.58
2023-01-12T03:57:28.530Z,5.95
2023-01-12T03:59:56.837Z,3.00
2023-01-12T04:02:23.340Z,5.97
2023-01-12T04:04:50.457Z,4.80
2023-01-12T04:07:17.069Z,6.03
2023-01-12T04:09:43.630Z,5.15
2023-01-12T04:12:12.549Z,1.77
2023-01-12T04:14:48.043Z,5.72
2023-01-12T04:17:15.520Z,3.40
2023-01-12T04:19:42.600Z,4.40
2023-01-12T04:22:32.745Z,3.10
2023-01-12T04:24:59.423Z,5.22
2023-01-12T04:27:26.097Z,2.40
2023-01-12T04:29:56.193Z,4.28
2023-01-12T04:32:22.776Z,3.35
2023-01-12T04:34:49.345Z,1.88
2023-01-12T04:37:15.907Z,4.18
2023-01-12T04:39:42.464Z,4.13
2023-01-12T04:42:28.994Z,4.95
2023-01-12T04:44:55.545Z,5.03
2023-01-12T04:47:22.149Z,2.95
2023-01-12T04:49:48.695Z,4.45
2023-01-12T04:52:15.422Z,3.65
2023-01-12T04:54:42.045Z,6.68
2023-01-12T04:57:08.599Z,5.13
2023-01-12T04:59:35.095Z,2.47
2023-01-12T05:02:01.602Z,3.85
2023-01-12T05:04:28.306Z,5.80
2023-01-12T05:06:54.780Z,3.92
2023-01-12T05:09:39.748Z,3.35
2023-01-12T05:12:07.871Z,1.00
2023-01-12T05:14:37.773Z,3.17
2023-01-12T05:17:05.032Z,1.20
2023-01-12T05:19:34.660Z,3.35
2023-01-12T05:22:01.525Z,3.92
2023-01-12T05:24:28.057Z,6.25
2023-01-12T05:26:54.547Z,2.15
2023-01-12T05:29:21.077Z,2.78
2023-01-12T05:31:47.610Z,3.97
2023-01-12T05:34:14.256Z,7.65
2023-01-12T05:36:40.851Z,4.05
2023-01-12T05:39:07.434Z,2.72
2023-01-12T05:41:34.061Z,7.35
2023-01-12T05:44:03.753Z,1.52
2023-01-12T05:46:33.188Z,2.50
2023-01-12T05:48:59.762Z,2.42
2023-01-12T05:51:27.764Z,5.55
2023-01-12T05:53:55.051Z,2.15
2023-01-12T05:56:26.889Z,1.48
2023-01-12T05:58:56.182Z,2.58
2023-01-12T06:01:23.363Z,3.70
2023-01-12T06:03:57.172Z,2.22
2023-01-12T06:06:25.937Z,1.98
2023-01-12T06:08:53.789Z,2.88
2023-01-12T06:11:39.617Z,2.00
2023-01-12T06:14:07.238Z,3.22
2023-01-12T06:16:37.679Z,2.45
2023-01-12T06:21:33.057Z,1.02
2023-01-12T06:24:02.655Z,2.90
2023-01-12T06:26:29.150Z,2.08
2023-01-12T06:28:55.646Z,0.52
2023-01-12T06:31:22.303Z,1.85
2023-01-12T06:33:48.817Z,2.25
2023-01-12T06:36:15.430Z,0.82
2023-01-12T06:38:43.199Z,2.05
2023-01-12T06:41:30.666Z,1.13
2023-01-12T06:44:04.934Z,2.22
2023-01-12T06:46:31.724Z,0.73
2023-01-12T06:48:58.829Z,3.10
2023-01-12T06:51:26.059Z,0.93
2023-01-12T06:53:53.178Z,1.73
2023-01-12T06:56:19.935Z,1.58
2023-01-12T06:58:46.612Z,1.40
2023-01-12T07:01:16.867Z,1.20
2023-01-12T07:06:10.190Z,0.82
2023-01-12T07:08:36.783Z,2.25
2023-01-12T07:11:05.059Z,2.28
2023-01-12T07:13:31.881Z,0.75
2023-01-12T07:16:00.139Z,1.13
2023-01-12T07:18:27.509Z,1.13
2023-01-12T07:20:54.271Z,1.52
2023-01-12T07:23:20.833Z,0.65
2023-01-12T07:25:47.370Z,1.95
2023-01-12T07:28:13.894Z,1.08
2023-01-12T07:30:40.467Z,1.15
2023-01-12T07:33:08.945Z,1.05
2023-01-12T07:35:35.645Z,1.83
2023-01-12T07:38:02.351Z,3.83
2023-01-12T07:40:28.921Z,2.58
2023-01-12T07:43:02.976Z,2.55
2023-01-12T07:45:30.785Z,1.92
2023-01-12T07:47:57.951Z,1.27
2023-01-12T07:50:26.363Z,4.75
2023-01-12T07:52:54.200Z,1.35
2023-01-12T07:55:21.088Z,2.90
2023-01-12T07:58:03.309Z,1.30
2023-01-12T08:00:31.015Z,3.40
2023-01-12T08:03:08.009Z,4.55
2023-01-12T08:05:35.639Z,3.20
2023-01-12T08:08:03.624Z,4.80
2023-01-12T08:10:30.864Z,2.83
2023-01-12T08:12:57.699Z,3.47
2023-01-12T08:15:26.830Z,5.28
2023-01-12T08:18:00.609Z,4.78
2023-01-12T08:20:32.224Z,1.67
2023-01-12T08:23:02.461Z,5.10
2023-01-12T08:25:38.663Z,3.17
2023-01-12T08:28:07.691Z,3.55
2023-01-12T08:30:34.577Z,4.68
2023-01-12T08:33:02.282Z,6.22
2023-01-12T08:35:32.389Z,4.70
2023-01-12T08:37:59.303Z,5.20
2023-01-12T08:40:45.923Z,4.75
2023-01-12T08:43:12.662Z,5.22
2023-01-12T08:45:39.209Z,3.13
2023-01-12T08:48:08.490Z,6.43
2023-01-12T08:50:34.991Z,5.00
2023-01-12T08:53:01.728Z,4.93
2023-01-12T08:55:29.745Z,3.20
2023-01-12T08:57:56.370Z,6.03
2023-01-12T09:00:23.383Z,5.28
2023-01-12T09:02:50.136Z,5.43
2023-01-12T09:05:17.058Z,4.38
2023-01-12T09:07:43.614Z,8.93
2023-01-12T09:10:10.279Z,6.70
2023-01-12T09:12:36.895Z,4.35
2023-01-12T09:15:03.519Z,1.58
2023-01-12T09:17:30.099Z,6.05
2023-01-12T09:19:57.000Z,6.90
2023-01-12T09:22:24.072Z,6.05
2023-01-12T09:24:50.805Z,6.53
2023-01-12T09:27:17.339Z,6.32
2023-01-12T09:29:43.997Z,3.63
2023-01-12T09:32:10.502Z,9.05
2023-01-12T09:34:37.212Z,6.10
2023-01-12T09:37:06.861Z,10.13
2023-01-12T09:39:33.429Z,8.13
2023-01-12T09:42:18.933Z,8.70
2023-01-12T09:45:09.285Z,4.55
2023-01-12T09:47:47.565Z,8.65
2023-01-12T09:50:36.801Z,7.20
2023-01-12T09:53:10.830Z,9.95
2023-01-12T09:55:54.632Z,8.32
2023-01-12T09:59:03.728Z,6.18
2023-01-12T10:01:30.518Z,8.50
2023-01-12T10:04:01.601Z,9.70
2023-01-12T10:06:28.799Z,10.18
2023-01-12T10:09:00.993Z,6.43
2023-01-12T10:11:42.656Z,14.93
2023-01-12T10:14:24.499Z,12.27
2023-01-12T10:17:05.486Z,7.35
2023-01-12T10:20:03.320Z,15.88
2023-01-12T10:22:38.943Z,12.10
2023-01-12T10:25:27.704Z,11.27
2023-01-12T10:27:57.204Z,6.63
2023-01-12T10:30:41.479Z,8.30
2023-01-12T10:33:11.998Z,8.70
2023-01-12T10:35:54.181Z,11.93
2023-01-12T10:38:25.919Z,6.63
2023-01-12T10:41:04.984Z,9.00
2023-01-12T10:43:34.430Z,10.50
2023-01-12T10:46:10.066Z,7.85
2023-01-12T10:48:43.150Z,9.07
2023-01-12T10:51:23.863Z,9.73
2023-01-12T10:53:54.045Z,5.63
2023-01-12T10:56:28.830Z,4.28
2023-01-12T10:59:02.847Z,2.30
2023-01-12T11:01:53.930Z,6.05
2023-01-12T11:04:23.256Z,5.53
2023-01-12T11:07:13.840Z,6.00
2023-01-12T11:09:42.528Z,6.88
2023-01-12T11:12:36.737Z,4.72
2023-01-12T11:15:09.437Z,5.72
2023-01-12T11:17:58.886Z,3.13
2023-01-12T11:21:02.954Z,5.55
2023-01-12T11:23:40.810Z,5.07
2023-01-12T11:26:27.882Z,4.75
2023-01-12T11:29:06.416Z,5.10
2023-01-12T11:31:39.519Z,2.67
2023-01-12T11:34:18.550Z,5.88
2023-01-12T11:36:55.052Z,4.85
2023-01-12T11:42:21.105Z,6.45
2023-01-12T11:44:53.691Z,6.38
2023-01-12T11:47:26.944Z,6.25
2023-01-12T11:50:05.006Z,7.88
2023-01-12T11:52:32.627Z,3.28
2023-01-12T11:54:59.192Z,3.95
2023-01-12T11:57:45.398Z,5.53
2023-01-12T12:00:37.087Z,7.95
2023-01-12T12:03:32.489Z,4.10
2023-01-12T12:06:16.617Z,2.78
2023-01-12T12:09:01.920Z,2.38
2023-01-12T12:11:46.180Z,1.48
2023-01-12T12:14:44.360Z,1.17
2023-01-12T12:17:44.182Z,2.55
2023-01-12T12:20:24.444Z,1.88
2023-01-12T12:22:59.048Z,1.38
2023-01-12T12:25:36.545Z,1.75
2023-01-12T12:28:21.088Z,1.35
2023-01-12T12:31:00.693Z,1.30
2023-01-12T12:33:54.720Z,3.80
2023-01-12T12:36:45.093Z,4.07
2023-01-12T12:39:26.638Z,3.78
2023-01-12T12:42:39.062Z,3.00
2023-01-12T12:45:21.461Z,3.42
2023-01-12T12:48:23.140Z,4.97
2023-01-12T12:51:07.081Z,3.88
2023-01-12T12:53:41.778Z,2.90
2023-01-12T12:56:12.226Z,4.07
2023-01-12T12:58:53.677Z,2.05
2023-01-12T13:01:20.336Z,2.15
2023-01-12T13:03:49.328Z,2.85
2023-01-12T13:06:38.875Z,2.70
2023-01-12T13:09:11.418Z,0.90
2023-01-12T13:11:50.379Z,0.70
2023-01-12T13:14:26.358Z,0.32
2023-01-12T13:16:55.398Z,0.20
2023-01-12T13:19:38.546Z,1.27
2023-01-12T13:22:47.012Z,0.60
2023-01-12T13:25:16.629Z,0.70
2023-01-12T13:28:01.461Z,0.20
2023-01-12T13:30:30.942Z,2.05
2023-01-12T13:33:15.908Z,0.35
2023-01-12T13:35:46.278Z,0.70
2023-01-12T13:40:56.147Z,0.75
2023-01-12T13:43:28.943Z,0.95
2023-01-12T13:46:21.195Z,0.47
2023-01-12T13:48:50.696Z,0.93
2023-01-12T13:51:17.303Z,1.95
2023-01-12T13:53:44.041Z,0.55
2023-01-12T13:56:20.076Z,1.65
2023-01-12T13:58:51.167Z,0.88
2023-01-12T14:01:32.404Z,1.10
2023-01-12T14:04:16.801Z,1.20
2023-01-12T14:07:14.767Z,2.25
2023-01-12T14:10:05.787Z,3.17
2023-01-12T14:12:50.925Z,1.42
2023-01-12T14:15:57.955Z,1.80
2023-01-12T14:18:27.399Z,0.85
2023-01-12T14:20:57.015Z,1.38
2023-01-12T14:23:26.213Z,2.15
2023-01-12T14:26:12.181Z,0.95
2023-01-12T14:28:44.305Z,1.50
2023-01-12T14:31:43.440Z,0.73
2023-01-12T14:34:38.253Z,0.57
2023-01-12T14:37:34.458Z,0.98
2023-01-12T14:40:01.210Z,2.22
2023-01-12T14:42:46.578Z,1.42
2023-01-12T14:45:40.971Z,1.73
2023-01-12T14:48:20.726Z,1.42
2023-01-12T14:51:17.394Z,1.98
2023-01-12T14:53:47.356Z,1.15
2023-01-12T14:56:22.576Z,1.67
2023-01-12T14:58:49.357Z,1.73
2023-01-12T15:01:37.799Z,1.60
2023-01-12T15:04:06.824Z,0.90
2023-01-12T15:06:39.273Z,1.23
2023-01-12T15:09:27.046Z,1.70
2023-01-12T15:11:54.083Z,1.90
2023-01-12T15:14:25.105Z,0.70
2023-01-12T15:17:11.661Z,2.17
2023-01-12T15:19:59.914Z,1.65
2023-01-12T15:22:46.744Z,2.42
2023-01-12T15:25:35.392Z,1.48
2023-01-12T15:28:07.383Z,1.60
2023-01-12T15:30:40.590Z,5.43
2023-01-12T15:33:08.604Z,1.35
2023-01-12T15:37:41.134Z,0.90
2023-01-12T15:40:24.126Z,2.83
2023-01-12T15:42:53.341Z,3.97
2023-01-12T15:45:26.108Z,2.42
2023-01-12T15:47:52.730Z,2.40
2023-01-12T15:50:19.707Z,2.25
2023-01-12T15:52:46.675Z,0.70
2023-01-12T15:55:21.905Z,2.33
2023-01-12T15:57:48.702Z,1.42
2023-01-12T16:00:18.467Z,1.55
2023-01-12T16:02:45.570Z,1.52
2023-01-12T16:05:13.253Z,1.63
2023-01-12T16:07:42.516Z,2.05
2023-01-12T16:10:10.253Z,1.20
2023-01-12T16:12:37.225Z,1.05
2023-01-12T16:15:04.848Z,0.82
2023-01-12T16:17:31.782Z,1.25
2023-01-12T16:19:58.313Z,0.70
2023-01-12T16:22:26.567Z,0.80
2023-01-12T16:24:56.635Z,1.65
2023-01-12T16:27:24.916Z,1.17
2023-01-12T16:29:51.546Z,1.02
2023-01-12T16:32:21.707Z,1.05
2023-01-12T16:34:50.532Z,2.50
2023-01-12T16:37:17.585Z,2.40
2023-01-12T16:39:44.068Z,1.00
2023-01-12T16:42:10.984Z,1.10
2023-01-12T16:44:40.132Z,2.92
2023-01-12T16:47:15.445Z,3.85
2023-01-12T16:49:42.311Z,0.95
2023-01-12T16:52:13.925Z,1.58
2023-01-12T16:54:42.652Z,2.35
2023-01-12T16:57:15.464Z,1.00
2023-01-12T16:59:42.730Z,2.65
2023-01-12T17:02:17.808Z,1.60
2023-01-12T17:04:45.700Z,2.00
2023-01-12T17:07:12.889Z,1.38
2023-01-12T17:09:40.333Z,1.45
2023-01-12T17:12:07.840Z,1.25
2023-01-12T17:14:35.306Z,0.95
2023-01-12T17:17:05.342Z,1.90
2023-01-12T17:19:34.168Z,1.75
2023-01-12T17:22:02.156Z,1.75
2023-01-12T17:24:30.160Z,2.03
2023-01-12T17:26:57.323Z,1.52
2023-01-12T17:29:25.602Z,2.13
2023-01-12T17:31:53.841Z,2.67
2023-01-12T17:34:22.280Z,1.75
2023-01-12T17:36:49.079Z,1.45
2023-01-12T17:39:15.956Z,2.42
2023-01-12T17:42:02.300Z,1.48
2023-01-12T17:44:31.739Z,2.63
2023-01-12T17:46:58.277Z,0.80
2023-01-12T17:49:24.954Z,0.98
2023-01-12T17:51:52.109Z,0.95
2023-01-12T17:54:18.693Z,1.73
2023-01-12T17:56:45.706Z,0.75
2023-01-12T17:59:18.600Z,3.72
2023-01-12T18:01:47.019Z,2.05
2023-01-12T18:04:14.590Z,2.05
2023-01-12T18:06:41.819Z,5.03
2023-01-12T18:09:12.464Z,2.88
2023-01-12T18:11:41.524Z,1.35
2023-01-12T18:14:12.363Z,2.70
2023-01-12T18:16:42.259Z,1.30
2023-01-12T18:19:10.365Z,2.53
2023-01-12T18:21:37.281Z,1.77
2023-01-12T18:24:03.960Z,2.33
2023-01-12T18:26:33.557Z,1.90
2023-01-12T18:29:02.428Z,2.03
2023-01-12T18:31:37.793Z,3.55
2023-01-12T18:34:06.306Z,3.10
2023-01-12T18:36:35.544Z,2.83
2023-01-12T18:39:03.993Z,3.22
2023-01-12T18:41:49.325Z,2.50
2023-01-12T18:44:16.149Z,2.85
2023-01-12T18:47:02.567Z,2.03
2023-01-12T18:49:34.290Z,4.97
2023-01-12T18:52:20.066Z,3.50
2023-01-12T18:54:53.266Z,15.90
2023-01-12T18:57:22.993Z,13.57
2023-01-12T18:59:52.578Z,16.35
2023-01-12T19:02:20.418Z,9.07
2023-01-12T19:04:51.331Z,20.30
2023-01-12T19:07:39.936Z,9.82
2023-01-12T19:10:06.997Z,29.45
2023-01-12T19:12:33.798Z,27.15
2023-01-12T19:15:18.925Z,28.10
2023-01-12T19:17:45.517Z,13.45
2023-01-12T19:20:17.337Z,30.20
2023-01-12T19:23:02.341Z,20.35
2023-01-12T19:25:47.161Z,27.35
2023-01-12T19:28:34.740Z,23.40
2023-01-12T19:31:05.931Z,45.25
2023-01-12T19:33:33.212Z,44.97
2023-01-12T19:36:09.222Z,37.55
2023-01-12T19:38:36.358Z,41.17
2023-01-12T19:41:31.329Z,18.80
2023-01-12T19:44:00.992Z,29.90
2023-01-12T19:46:27.815Z,44.97
2023-01-12T19:48:54.348Z,55.13
2023-01-12T19:51:24.338Z,29.63
2023-01-12T19:53:50.869Z,39.35
2023-01-12T19:56:17.408Z,37.80
2023-01-12T19:58:44.980Z,30.02
2023-01-12T20:01:20.338Z,14.90
2023-01-12T20:03:47.527Z,16.30
2023-01-12T20:06:14.240Z,6.55
2023-01-12T20:08:44.568Z,10.65
2023-01-12T20:11:13.962Z,22.83
2023-01-12T20:13:40.654Z,7.30
2023-01-12T20:16:09.297Z,11.48
2023-01-12T20:18:36.294Z,2.50
2023-01-12T20:21:08.428Z,11.50
2023-01-12T20:23:35.046Z,4.70
2023-01-12T20:26:07.529Z,5.10
2023-01-12T20:28:35.231Z,3.50
2023-01-12T20:31:01.846Z,5.03
2023-01-12T20:33:28.590Z,5.75
2023-01-12T20:35:55.340Z,4.60
2023-01-12T20:38:24.860Z,7.25
2023-01-12T20:40:51.372Z,4.28
2023-01-12T20:43:19.363Z,5.85
2023-01-12T20:45:45.833Z,5.38
2023-01-12T20:48:14.068Z,7.80
2023-01-12T20:50:48.449Z,9.07
2023-01-12T20:53:16.151Z,16.30
2023-01-12T20:55:49.739Z,45.55
2023-01-12T20:58:16.854Z,2.13
2023-01-12T21:00:43.478Z,3.30
2023-01-12T21:03:10.181Z,4.93
2023-01-12T21:05:41.573Z,2.63
2023-01-12T21:08:08.789Z,4.22
2023-01-12T21:10:37.638Z,1.67
2023-01-12T21:13:07.753Z,3.75
2023-01-12T21:15:34.401Z,1.40
2023-01-12T21:18:00.871Z,5.18
2023-01-12T21:20:27.443Z,2.80
2023-01-12T21:22:54.254Z,2.95
2023-01-12T21:25:20.886Z,5.32
2023-01-12T21:27:47.360Z,1.08
2023-01-12T21:30:13.990Z,4.97
2023-01-12T21:32:42.772Z,1.35
2023-01-12T21:35:09.586Z,2.58
2023-01-12T21:37:36.498Z,2.13
2023-01-12T21:40:03.238Z,3.47
2023-01-12T21:42:55.692Z,2.80
2023-01-12T21:45:23.738Z,6.45
2023-01-12T21:47:50.237Z,3.40
2023-01-12T21:50:17.486Z,1.30
2023-01-12T21:52:44.973Z,1.75
2023-01-12T21:55:14.309Z,4.47
2023-01-12T21:57:42.421Z,1.75
2023-01-12T22:00:10.443Z,6.38
2023-01-12T22:02:39.973Z,3.08
2023-01-12T22:05:06.774Z,8.02
2023-01-12T22:07:33.238Z,6.47
2023-01-12T22:10:18.978Z,6.03
2023-01-12T22:12:51.448Z,5.47
2023-01-12T22:15:18.470Z,7.85
2023-01-12T22:17:44.993Z,7.05
2023-01-12T22:20:17.299Z,10.75
2023-01-12T22:22:44.407Z,7.30
2023-01-12T22:25:12.921Z,10.15
2023-01-12T22:28:04.502Z,16.15
2023-01-12T22:30:34.229Z,6.18
2023-01-12T22:33:00.756Z,13.20
2023-01-12T22:35:31.182Z,7.93
2023-01-12T22:40:25.612Z,9.75
2023-01-12T22:43:12.469Z,5.35
2023-01-12T22:45:39.177Z,9.65
2023-01-12T22:48:06.625Z,13.32
2023-01-12T22:50:33.209Z,12.63
2023-01-12T22:52:59.831Z,8.35
2023-01-12T22:55:26.417Z,17.35
2023-01-12T22:57:53.760Z,13.45
2023-01-12T23:00:21.421Z,16.92
2023-01-12T23:03:00.365Z,9.57
2023-01-12T23:05:29.044Z,9.30
2023-01-12T23:07:56.237Z,14.80
2023-01-12T23:10:22.897Z,13.70
2023-01-12T23:13:10.930Z,8.80
2023-01-12T23:15:41.369Z,16.65
2023-01-12T23:18:08.587Z,12.25
2023-01-12T23:20:36.388Z,8.02
2023-01-12T23:23:03.479Z,12.30
2023-01-12T23:25:32.643Z,14.20
2023-01-12T23:28:00.094Z,10.80
2023-01-12T23:30:30.861Z,15.00
2023-01-12T23:32:59.129Z,10.70
2023-01-12T23:35:27.072Z,12.73
2023-01-12T23:37:55.822Z,7.50
2023-01-12T23:40:22.526Z,16.77
2023-01-12T23:42:49.203Z,13.50
2023-01-12T23:45:15.723Z,15.68
2023-01-12T23:47:44.774Z,15.10
2023-01-12T23:50:12.378Z,19.77
2023-01-12T23:52:39.498Z,14.45
2023-01-12T23:55:06.992Z,15.40
2023-01-12T23:57:34.369Z,19.45
